Terminal Aerodrome Forecast
Issued by NWS

Home | Current Version | Previous Version | Text Only | Print | Product List | Glossary On
Versions: 1 2 3 4 5 6 7 8 9 10 11 12 13 14 15
000
FTUS46 KMTR 102300
TAFSTS
TAF
KSTS 102320Z 1100/1124 22010KT P6SM FEW020
     FM110400 17006KT P6SM OVC012
     FM110800 18004KT P6SM OVC007
     FM111700 VRB03KT P6SM OVC012
     FM112000 20007KT P6SM SCT020=

USA.gov is the U.S. government's official web portal to all federal, state and local government web resources and services.